Time;durP1;ratioP1;P1;durP2;ratioP2;P2;SDS_P1;SDS_P2;PMS_P1;PMS_P2;Temp;Humidity;BMP_temperature;BMP_pressure;BME280_temperature;BME280_humidity;BME280_pressure;Samples;Min_cycle;Max_cycle;Signal;HPM_P1;HPM_P2
2021/09/14 00:00:45;;;;;;;6.00;5.38;;;15.90;99.90;;;;;;2079804;28;20040;-70
2021/09/14 00:01:46;;;;;;;6.80;6.00;;;15.90;99.90;;;;;;2079783;28;20381;-70
2021/09/14 00:02:47;;;;;;;7.38;6.57;;;15.90;99.90;;;;;;2079296;28;20061;-70
2021/09/14 00:03:48;;;;;;;7.30;6.25;;;15.90;99.90;;;;;;2079813;28;20454;-70
2021/09/14 00:04:49;;;;;;;7.18;6.22;;;15.90;99.90;;;;;;2079582;28;20262;-70
2021/09/14 00:05:50;;;;;;;8.48;6.55;;;15.90;99.90;;;;;;2079622;28;20033;-70
2021/09/14 00:06:50;;;;;;;8.18;6.05;;;15.90;99.90;;;;;;2079425;28;20099;-70
2021/09/14 00:07:51;;;;;;;6.05;5.50;;;15.90;99.90;;;;;;2083946;28;20021;-70
2021/09/14 00:08:51;;;;;;;6.47;5.85;;;15.90;99.90;;;;;;2083592;28;20018;-70
2021/09/14 00:09:52;;;;;;;9.02;5.97;;;15.80;99.90;;;;;;2079925;28;20445;-70
2021/09/14 00:10:52;;;;;;;7.03;5.90;;;15.80;99.90;;;;;;2079578;28;20032;-70
2021/09/14 00:11:53;;;;;;;6.10;5.55;;;15.80;99.90;;;;;;2079132;28;20149;-70
2021/09/14 00:12:53;;;;;;;6.65;6.13;;;15.80;99.90;;;;;;2079889;28;20038;-70
2021/09/14 00:13:54;;;;;;;6.93;6.32;;;15.80;99.90;;;;;;2079347;28;20421;-70
2021/09/14 00:14:55;;;;;;;6.70;6.00;;;15.80;99.90;;;;;;2079702;28;20790;-70
2021/09/14 00:15:55;;;;;;;6.53;5.85;;;15.80;99.90;;;;;;2079600;28;20053;-70
2021/09/14 00:16:56;;;;;;;7.60;6.90;;;15.80;99.90;;;;;;2080590;28;20509;-70
2021/09/14 00:17:56;;;;;;;8.55;7.60;;;15.80;99.90;;;;;;2079968;28;20053;-70
2021/09/14 00:18:57;;;;;;;8.55;7.40;;;15.80;99.90;;;;;;2079558;28;20140;-70
2021/09/14 00:19:57;;;;;;;8.40;6.75;;;15.80;99.90;;;;;;2079418;28;20121;-70
2021/09/14 00:20:58;;;;;;;5.88;5.40;;;15.80;99.90;;;;;;2080296;28;21032;-70
2021/09/14 00:21:59;;;;;;;6.35;5.82;;;15.80;99.90;;;;;;2079013;28;20083;-70
2021/09/14 00:22:59;;;;;;;7.28;6.22;;;15.80;99.90;;;;;;2081934;28;20032;-70
2021/09/14 00:24:00;;;;;;;6.15;5.55;;;15.80;99.90;;;;;;2084614;28;20032;-70
2021/09/14 00:25:00;;;;;;;5.70;5.05;;;15.80;99.90;;;;;;2092234;28;20034;-70
2021/09/14 00:26:01;;;;;;;7.93;6.43;;;15.80;99.90;;;;;;2096034;28;20475;-70
2021/09/14 00:27:02;;;;;;;6.82;6.25;;;15.80;99.90;;;;;;2080433;28;20032;-70
2021/09/14 00:28:03;;;;;;;11.02;6.70;;;15.80;99.90;;;;;;2079809;28;20473;-70
2021/09/14 00:29:03;;;;;;;9.48;6.68;;;15.80;99.90;;;;;;2079756;28;20032;-70
2021/09/14 00:30:05;;;;;;;7.75;6.65;;;15.80;99.90;;;;;;2079655;28;20030;-70
2021/09/14 00:31:05;;;;;;;9.48;7.50;;;15.80;99.90;;;;;;2079763;28;20040;-70
2021/09/14 00:32:06;;;;;;;8.40;6.40;;;15.80;99.90;;;;;;2084532;28;20124;-70
2021/09/14 00:33:06;;;;;;;7.20;6.50;;;15.80;99.90;;;;;;2080926;28;20024;-70
2021/09/14 00:34:07;;;;;;;7.10;6.50;;;15.80;99.90;;;;;;2081293;28;20025;-70
2021/09/14 00:35:08;;;;;;;6.25;5.68;;;15.70;99.90;;;;;;2080832;28;20037;-70
2021/09/14 00:36:08;;;;;;;9.65;7.43;;;15.70;99.90;;;;;;2081328;28;20036;-70
2021/09/14 00:37:09;;;;;;;7.75;6.45;;;15.70;99.90;;;;;;2081349;28;20048;-70
2021/09/14 00:38:10;;;;;;;9.23;8.23;;;15.70;99.90;;;;;;2080997;28;20025;-70
2021/09/14 00:39:10;;;;;;;8.57;7.65;;;15.70;99.90;;;;;;2081488;28;20052;-70
2021/09/14 00:40:11;;;;;;;8.45;7.57;;;15.70;99.90;;;;;;2089460;28;20048;-70
2021/09/14 00:41:12;;;;;;;7.60;7.00;;;15.70;99.90;;;;;;2084448;28;20108;-70
2021/09/14 00:42:12;;;;;;;8.30;6.65;;;15.70;99.90;;;;;;2080542;28;20132;-70
2021/09/14 00:43:23;;;;;;;7.32;6.63;;;15.70;99.90;;;;;;2080656;28;20108;-70
2021/09/14 00:44:24;;;;;;;7.55;6.85;;;15.70;99.90;;;;;;2080946;28;20492;-70
2021/09/14 00:45:24;;;;;;;7.15;6.45;;;15.70;99.90;;;;;;2080357;28;20440;-70
2021/09/14 00:46:25;;;;;;;7.32;6.63;;;15.70;99.90;;;;;;2083335;28;20105;-70
2021/09/14 00:47:25;;;;;;;6.57;5.97;;;15.70;99.90;;;;;;2081435;28;20021;-70
2021/09/14 00:48:26;;;;;;;8.02;6.75;;;15.70;99.90;;;;;;2081072;28;20382;-70
2021/09/14 00:49:26;;;;;;;7.30;6.65;;;15.60;99.90;;;;;;2081233;28;20033;-70
2021/09/14 00:50:27;;;;;;;8.18;7.20;;;15.70;99.90;;;;;;2081239;28;20060;-70
2021/09/14 00:51:28;;;;;;;8.93;6.68;;;15.70;99.90;;;;;;2081342;28;20052;-70
2021/09/14 00:52:28;;;;;;;7.50;6.80;;;15.70;99.90;;;;;;2081154;28;20558;-70
2021/09/14 00:53:29;;;;;;;8.73;7.93;;;15.60;99.90;;;;;;2079920;28;20034;-70
2021/09/14 00:54:31;;;;;;;10.57;7.25;;;15.70;99.90;;;;;;2080460;28;20500;-70
2021/09/14 00:55:31;;;;;;;7.80;7.10;;;15.70;99.90;;;;;;2080233;28;20032;-70
2021/09/14 00:56:32;;;;;;;8.65;7.13;;;15.60;99.90;;;;;;2080530;28;20029;-70
2021/09/14 00:57:33;;;;;;;7.03;6.43;;;15.60;99.90;;;;;;2080469;28;20025;-70
2021/09/14 00:58:33;;;;;;;7.72;6.95;;;15.60;99.90;;;;;;2072749;28;20026;-70
2021/09/14 00:59:34;;;;;;;7.97;7.25;;;15.60;99.90;;;;;;2080378;28;20482;-70
2021/09/14 01:00:34;;;;;;;8.30;7.47;;;15.60;99.90;;;;;;2084758;28;20052;-70
2021/09/14 01:01:35;;;;;;;7.88;7.10;;;15.60;99.90;;;;;;2081093;28;20040;-70
2021/09/14 01:02:36;;;;;;;7.35;6.65;;;15.60;99.90;;;;;;2080409;28;20064;-70
2021/09/14 01:03:37;;;;;;;7.75;7.00;;;15.60;99.90;;;;;;2080871;28;20100;-70
2021/09/14 01:04:37;;;;;;;6.53;5.68;;;15.60;99.90;;;;;;2081100;28;20041;-70
2021/09/14 01:05:38;;;;;;;6.97;6.25;;;15.50;99.90;;;;;;2081073;28;20022;-70
2021/09/14 01:06:39;;;;;;;6.15;5.55;;;15.50;99.90;;;;;;2081225;28;20021;-70
2021/09/14 01:07:41;;;;;;;7.68;7.00;;;15.50;99.90;;;;;;2083723;28;20105;-70
2021/09/14 01:08:42;;;;;;;7.65;6.93;;;15.50;99.90;;;;;;2085835;28;20036;-70
2021/09/14 01:09:44;;;;;;;8.38;7.05;;;15.50;99.90;;;;;;2080986;28;20057;-70
2021/09/14 01:10:45;;;;;;;7.30;6.65;;;15.50;99.90;;;;;;2081231;28;20022;-70
2021/09/14 01:11:46;;;;;;;7.85;7.05;;;15.50;99.90;;;;;;2080823;28;20056;-70
2021/09/14 01:12:47;;;;;;;8.50;7.53;;;15.40;99.90;;;;;;2080531;28;20079;-70
2021/09/14 01:13:58;;;;;;;8.65;7.13;;;15.50;99.90;;;;;;2080893;28;20029;-70
2021/09/14 01:14:59;;;;;;;8.93;7.38;;;15.40;99.90;;;;;;2082182;28;20022;-70
2021/09/14 01:16:08;;;;;;;7.45;6.70;;;15.40;99.90;;;;;;2080938;28;20032;-70
2021/09/14 01:17:09;;;;;;;7.93;7.10;;;15.40;99.90;;;;;;2081068;28;20157;-70
2021/09/14 01:18:09;;;;;;;7.88;6.90;;;15.40;99.90;;;;;;2081078;28;20079;-70
2021/09/14 01:19:11;;;;;;;7.93;7.13;;;15.40;99.90;;;;;;2081040;28;20029;-70
2021/09/14 01:20:12;;;;;;;8.45;7.10;;;15.40;99.90;;;;;;2080778;28;20036;-70
2021/09/14 01:21:20;;;;;;;10.00;7.03;;;15.30;99.90;;;;;;2081091;28;20052;-70
2021/09/14 01:22:27;;;;;;;7.93;6.97;;;15.30;99.90;;;;;;2088260;28;20021;-70
2021/09/14 01:23:28;;;;;;;8.15;6.68;;;15.30;99.90;;;;;;2084847;28;20022;-70
2021/09/14 01:24:28;;;;;;;8.10;7.15;;;15.30;99.90;;;;;;2080737;28;20030;-70
2021/09/14 01:25:29;;;;;;;7.65;6.95;;;15.30;99.90;;;;;;2081035;28;20037;-70
2021/09/14 01:26:30;;;;;;;8.48;6.93;;;15.30;99.90;;;;;;2080798;28;20033;-70
2021/09/14 01:27:31;;;;;;;5.78;5.28;;;15.30;99.90;;;;;;2081274;28;20030;-70
2021/09/14 01:28:32;;;;;;;8.50;6.63;;;15.20;99.90;;;;;;2080810;28;20100;-70
2021/09/14 01:30:51;;;;;;;7.22;6.63;;;15.20;99.90;;;;;;2080642;28;20108;-70
2021/09/14 01:31:52;;;;;;;7.25;6.60;;;15.20;99.90;;;;;;2077829;28;20042;-70
2021/09/14 01:32:55;;;;;;;9.20;7.80;;;15.20;99.90;;;;;;2087204;28;20453;-70
2021/09/14 01:33:55;;;;;;;7.97;7.18;;;15.20;99.90;;;;;;2083720;28;20055;-70
2021/09/14 01:35:07;;;;;;;8.25;7.45;;;15.20;99.90;;;;;;2084620;28;20428;-70
2021/09/14 01:36:07;;;;;;;7.88;7.07;;;15.20;99.90;;;;;;2087973;28;20034;-70
2021/09/14 01:37:08;;;;;;;7.32;6.63;;;15.10;99.90;;;;;;2089241;28;20021;-70
2021/09/14 01:38:09;;;;;;;7.63;6.93;;;15.10;99.90;;;;;;2082771;28;20017;-70
2021/09/14 01:39:10;;;;;;;7.70;6.90;;;15.10;99.90;;;;;;2080933;28;20021;-70
2021/09/14 01:40:11;;;;;;;6.45;5.85;;;15.10;99.90;;;;;;2088114;28;20037;-70
2021/09/14 01:41:12;;;;;;;9.18;7.30;;;15.10;99.90;;;;;;2083542;28;20084;-70
2021/09/14 01:42:13;;;;;;;6.97;6.38;;;15.10;99.90;;;;;;2080107;28;20063;-70
2021/09/14 01:43:14;;;;;;;7.53;6.82;;;15.00;99.90;;;;;;2079651;28;20552;-70
2021/09/14 01:44:15;;;;;;;8.57;7.70;;;15.10;99.90;;;;;;2085912;28;20485;-70
2021/09/14 01:45:15;;;;;;;7.88;7.15;;;15.00;99.90;;;;;;2085676;28;20771;-70
2021/09/14 01:46:16;;;;;;;8.95;7.97;;;15.00;99.90;;;;;;2087361;28;20019;-70
2021/09/14 01:47:16;;;;;;;8.55;7.65;;;15.00;99.90;;;;;;2087839;28;20017;-70
2021/09/14 01:48:17;;;;;;;7.60;7.00;;;15.00;99.90;;;;;;2087037;28;20049;-70
2021/09/14 01:49:17;;;;;;;9.52;8.50;;;15.00;99.90;;;;;;2084632;28;20049;-70
2021/09/14 01:50:18;;;;;;;7.95;7.25;;;15.00;99.90;;;;;;2080654;28;20460;-70
2021/09/14 01:51:19;;;;;;;7.68;6.95;;;15.00;99.90;;;;;;2080597;28;20036;-70
2021/09/14 01:52:19;;;;;;;8.93;8.10;;;15.00;99.90;;;;;;2080766;28;20362;-70
2021/09/14 01:53:23;;;;;;;7.65;7.03;;;14.90;99.90;;;;;;2079730;28;20028;-70
2021/09/14 01:54:23;;;;;;;10.27;7.80;;;15.00;99.90;;;;;;2080107;28;20025;-70
2021/09/14 01:55:24;;;;;;;8.60;7.43;;;14.90;99.90;;;;;;2079958;28;20053;-70
2021/09/14 01:56:24;;;;;;;8.13;7.43;;;14.90;99.90;;;;;;2081171;28;20108;-70
2021/09/14 01:57:30;;;;;;;6.78;6.18;;;14.90;99.90;;;;;;2083503;28;20501;-70
2021/09/14 01:58:30;;;;;;;6.93;6.32;;;14.90;99.90;;;;;;2081015;28;20061;-70
2021/09/14 01:59:32;;;;;;;7.13;6.53;;;14.90;99.90;;;;;;2080315;28;20030;-70
2021/09/14 02:00:36;;;;;;;6.90;6.30;;;14.90;99.90;;;;;;2082272;28;20079;-70
2021/09/14 02:01:41;;;;;;;7.60;6.68;;;14.90;99.90;;;;;;2071483;28;20030;-70
2021/09/14 02:04:04;;;;;;;7.75;7.05;;;14.80;99.90;;;;;;2080150;28;20022;-70
2021/09/14 02:06:36;;;;;;;7.97;7.20;;;14.80;99.90;;;;;;2086109;28;20029;-70
2021/09/14 02:07:50;;;;;;;10.60;7.63;;;14.80;99.90;;;;;;2080387;28;20017;-70
2021/09/14 02:33:59;;;;;;;9.30;7.18;;;14.30;99.90;;;;;;2088613;28;20408;-70
2021/09/14 02:45:02;;;;;;;7.93;7.22;;;14.20;99.90;;;;;;2083564;28;20026;-70
2021/09/14 02:59:14;;;;;;;14.20;7.18;;;14.00;99.90;;;;;;2080178;28;20473;-70
2021/09/14 03:00:14;;;;;;;7.20;6.50;;;14.00;99.90;;;;;;2082749;28;20476;-70
2021/09/14 03:01:16;;;;;;;8.05;7.25;;;14.00;99.90;;;;;;2079841;28;20017;-70
2021/09/14 03:02:17;;;;;;;8.10;7.10;;;14.10;99.90;;;;;;2080406;28;20049;-70
2021/09/14 03:03:18;;;;;;;9.00;6.25;;;14.10;99.90;;;;;;2079949;28;20014;-70
2021/09/14 03:04:19;;;;;;;8.13;6.95;;;14.00;99.90;;;;;;2080110;28;20079;-70
2021/09/14 03:05:19;;;;;;;7.90;7.20;;;14.10;99.90;;;;;;2080243;28;20064;-70
2021/09/14 03:06:20;;;;;;;10.32;8.05;;;14.10;99.90;;;;;;2080037;28;20551;-70
2021/09/14 03:07:20;;;;;;;9.60;7.68;;;14.00;99.90;;;;;;2083054;28;20047;-70
2021/09/14 03:08:21;;;;;;;7.80;7.10;;;14.00;99.90;;;;;;2088256;28;20040;-70
2021/09/14 03:09:21;;;;;;;6.63;6.10;;;14.00;99.90;;;;;;2079926;28;20032;-70
2021/09/14 03:10:22;;;;;;;7.78;7.13;;;14.00;99.90;;;;;;2080014;28;20616;-70
2021/09/14 03:11:22;;;;;;;7.93;7.18;;;14.00;99.90;;;;;;2079893;28;20462;-70
2021/09/14 03:12:23;;;;;;;7.88;7.20;;;14.00;99.90;;;;;;2079789;28;20028;-70
2021/09/14 03:13:26;;;;;;;8.23;7.43;;;14.00;99.90;;;;;;2079738;28;20519;-70
2021/09/14 03:14:27;;;;;;;9.25;8.35;;;14.00;99.90;;;;;;2080044;28;20029;-70
2021/09/14 03:15:27;;;;;;;33.20;8.48;;;14.00;99.90;;;;;;2080149;28;20036;-70
2021/09/14 03:16:28;;;;;;;9.45;8.48;;;14.00;99.90;;;;;;2079609;28;20030;-70
2021/09/14 03:17:29;;;;;;;8.07;7.35;;;14.00;99.90;;;;;;2084482;28;20029;-70
2021/09/14 03:18:29;;;;;;;9.05;7.70;;;14.00;99.90;;;;;;2084268;28;20032;-70
2021/09/14 03:19:30;;;;;;;8.70;7.68;;;14.00;99.90;;;;;;2080054;28;20040;-70
2021/09/14 03:20:30;;;;;;;8.55;7.75;;;14.00;99.90;;;;;;2079903;28;20029;-70
2021/09/14 03:21:31;;;;;;;8.07;7.47;;;14.00;99.90;;;;;;2081851;28;20433;-70
2021/09/14 03:22:32;;;;;;;8.85;8.00;;;14.00;99.90;;;;;;2080074;28;20470;-70
2021/09/14 03:23:34;;;;;;;8.63;7.80;;;14.00;99.90;;;;;;2080011;28;20091;-69
2021/09/14 03:24:34;;;;;;;8.77;7.93;;;13.90;99.90;;;;;;2080088;28;20030;-70
2021/09/14 03:25:35;;;;;;;8.68;7.80;;;14.00;99.90;;;;;;2080078;28;20493;-70
2021/09/14 03:26:35;;;;;;;10.05;8.30;;;13.90;99.90;;;;;;2083040;28;20159;-70
2021/09/14 03:27:36;;;;;;;8.80;7.28;;;13.90;99.90;;;;;;2087690;28;20029;-70
2021/09/14 03:28:37;;;;;;;9.05;8.25;;;13.90;99.90;;;;;;2088188;28;20051;-70
2021/09/14 03:29:37;;;;;;;10.77;8.98;;;13.90;99.90;;;;;;2088152;28;20127;-70
2021/09/14 03:30:38;;;;;;;9.77;8.88;;;13.90;99.90;;;;;;2088007;28;20496;-70
2021/09/14 03:31:39;;;;;;;10.20;9.30;;;13.90;99.90;;;;;;2088094;28;20146;-70
2021/09/14 03:32:40;;;;;;;10.27;9.27;;;13.90;99.90;;;;;;2087993;28;20017;-70
2021/09/14 03:33:40;;;;;;;7.93;7.13;;;13.90;99.90;;;;;;2088135;28;20099;-70
2021/09/14 03:34:41;;;;;;;9.70;8.70;;;13.90;99.90;;;;;;2088132;28;20053;-70
2021/09/14 03:35:42;;;;;;;11.27;10.18;;;13.90;99.90;;;;;;2086775;28;20477;-69
2021/09/14 03:36:43;;;;;;;9.90;8.95;;;13.90;99.90;;;;;;2080544;28;20034;-70
2021/09/14 03:37:43;;;;;;;10.15;9.00;;;13.90;99.90;;;;;;2080162;28;20021;-70
2021/09/14 03:38:44;;;;;;;10.40;9.38;;;13.90;99.90;;;;;;2079799;28;20075;-70
2021/09/14 03:39:44;;;;;;;12.30;9.35;;;13.90;99.90;;;;;;2085015;28;20032;-70
2021/09/14 03:40:45;;;;;;;10.00;8.82;;;13.90;99.90;;;;;;2087114;28;20103;-70
2021/09/14 03:41:46;;;;;;;10.57;9.57;;;13.90;99.90;;;;;;2079809;28;21119;-70
2021/09/14 03:42:46;;;;;;;9.07;8.27;;;13.90;99.90;;;;;;2079398;28;20039;-70
2021/09/14 03:43:47;;;;;;;8.90;8.00;;;13.90;99.90;;;;;;2080169;28;20374;-70
2021/09/14 03:44:47;;;;;;;8.40;7.60;;;13.80;99.90;;;;;;2079962;28;20037;-70
2021/09/14 03:45:48;;;;;;;9.88;8.85;;;13.80;99.90;;;;;;2079508;28;20096;-70
2021/09/14 03:46:48;;;;;;;9.60;8.80;;;13.80;99.90;;;;;;2080042;28;20029;-70
2021/09/14 03:47:49;;;;;;;8.98;8.07;;;13.80;99.90;;;;;;2079791;28;20033;-70
2021/09/14 03:48:49;;;;;;;11.05;8.25;;;13.80;99.90;;;;;;2079953;28;20120;-70
2021/09/14 03:49:51;;;;;;;8.93;8.13;;;13.80;99.90;;;;;;2084662;28;20021;-70
2021/09/14 03:50:52;;;;;;;9.15;8.25;;;13.80;99.90;;;;;;2084211;28;20017;-70
2021/09/14 03:51:52;;;;;;;9.32;8.55;;;13.80;99.90;;;;;;2085852;28;20017;-70
2021/09/14 03:52:53;;;;;;;9.45;8.50;;;13.80;99.90;;;;;;2080449;28;20021;-70
2021/09/14 03:53:53;;;;;;;9.07;8.32;;;13.80;99.90;;;;;;2079932;28;20025;-70
2021/09/14 03:54:54;;;;;;;8.65;7.82;;;13.80;99.90;;;;;;2080110;28;20453;-70
2021/09/14 03:55:54;;;;;;;9.07;8.18;;;13.80;99.90;;;;;;2079607;28;20389;-70
2021/09/14 03:56:55;;;;;;;9.10;8.20;;;13.80;99.90;;;;;;2080154;28;20083;-70
2021/09/14 03:57:56;;;;;;;10.57;8.82;;;13.80;99.90;;;;;;2079753;28;20068;-70
2021/09/14 03:58:56;;;;;;;9.07;8.18;;;13.70;99.90;;;;;;2080189;28;20359;-70
2021/09/14 03:59:57;;;;;;;8.48;7.65;;;13.70;99.90;;;;;;2079658;28;20505;-70
2021/09/14 04:00:57;;;;;;;11.10;9.13;;;13.70;99.90;;;;;;2079685;28;20389;-70
2021/09/14 04:02:00;;;;;;;8.95;8.15;;;13.70;99.90;;;;;;2079441;28;20120;-70
2021/09/14 04:03:10;;;;;;;10.48;9.48;;;13.70;99.90;;;;;;2079310;28;20021;-70
2021/09/14 04:04:16;;;;;;;10.27;9.27;;;13.70;99.90;;;;;;2080050;28;20033;-70
2021/09/14 04:07:52;;;;;;;11.18;10.15;;;13.70;99.90;;;;;;2080117;28;20025;-70
2021/09/14 04:08:53;;;;;;;10.45;9.25;;;13.60;99.90;;;;;;2079847;28;20087;-70
2021/09/14 04:09:53;;;;;;;10.35;9.32;;;13.60;99.90;;;;;;2079577;28;20025;-70
2021/09/14 04:10:56;;;;;;;10.13;9.07;;;13.60;99.90;;;;;;2079546;28;20030;-70
2021/09/14 04:11:57;;;;;;;12.43;9.48;;;13.60;99.90;;;;;;2078781;28;20489;-70
2021/09/14 04:12:57;;;;;;;11.50;9.93;;;13.60;99.90;;;;;;2078508;28;20025;-70
2021/09/14 04:13:58;;;;;;;10.73;9.63;;;13.60;99.90;;;;;;2079987;28;20026;-70
2021/09/14 04:14:59;;;;;;;13.60;10.40;;;13.60;99.90;;;;;;2079693;28;20025;-70
2021/09/14 04:15:59;;;;;;;11.20;10.13;;;13.60;99.90;;;;;;2079932;28;20029;-70
2021/09/14 04:17:00;;;;;;;11.07;9.98;;;13.60;99.90;;;;;;2079707;28;20461;-70
2021/09/14 04:18:00;;;;;;;9.48;8.63;;;13.60;99.90;;;;;;2084692;28;20032;-70
2021/09/14 04:19:01;;;;;;;10.07;9.07;;;13.60;99.90;;;;;;2079615;28;20025;-70
2021/09/14 04:20:02;;;;;;;12.27;9.75;;;13.60;99.90;;;;;;2079736;28;20109;-70
2021/09/14 04:21:03;;;;;;;9.55;8.55;;;13.60;99.90;;;;;;2079588;28;20033;-70
2021/09/14 04:22:04;;;;;;;11.15;9.63;;;13.60;99.90;;;;;;2079721;28;20070;-70
2021/09/14 04:23:05;;;;;;;10.82;9.80;;;13.60;99.90;;;;;;2079253;28;20026;-70
2021/09/14 04:24:05;;;;;;;11.57;10.38;;;13.60;99.90;;;;;;2079585;28;20156;-70
2021/09/14 04:25:06;;;;;;;12.32;11.10;;;13.60;99.90;;;;;;2079678;28;20432;-70
2021/09/14 04:26:07;;;;;;;11.57;10.45;;;13.60;99.90;;;;;;2079733;28;20032;-70
2021/09/14 04:27:08;;;;;;;12.82;10.27;;;13.60;99.90;;;;;;2079594;28;20109;-70
2021/09/14 04:28:08;;;;;;;11.80;10.65;;;13.60;99.90;;;;;;2080167;28;20025;-70
2021/09/14 04:29:09;;;;;;;11.48;10.02;;;13.60;99.90;;;;;;2079530;28;20465;-70
2021/09/14 04:30:10;;;;;;;10.48;9.52;;;13.60;99.90;;;;;;2079647;28;20029;-70
2021/09/14 04:31:11;;;;;;;12.77;9.63;;;13.60;99.90;;;;;;2079468;28;20026;-69
2021/09/14 04:32:11;;;;;;;13.05;10.38;;;13.60;99.90;;;;;;2080717;28;20018;-69
2021/09/14 04:33:12;;;;;;;12.00;10.82;;;13.60;99.90;;;;;;2079366;28;20025;-70
2021/09/14 04:34:12;;;;;;;10.77;9.68;;;13.60;99.90;;;;;;2080405;28;20485;-70
2021/09/14 04:35:13;;;;;;;12.90;11.20;;;13.60;99.90;;;;;;2087997;28;20030;-70
2021/09/14 04:36:13;;;;;;;11.02;9.07;;;13.60;99.90;;;;;;2087900;28;20385;-70
2021/09/14 04:37:14;;;;;;;14.00;11.00;;;13.60;99.90;;;;;;2087498;28;20027;-70
2021/09/14 04:38:15;;;;;;;10.70;9.60;;;13.60;99.90;;;;;;2088123;28;20086;-70
2021/09/14 04:39:15;;;;;;;12.48;11.27;;;13.50;99.90;;;;;;2086746;28;20095;-70
2021/09/14 04:40:16;;;;;;;11.82;10.57;;;13.50;99.90;;;;;;2087949;28;20338;-70
2021/09/14 04:41:16;;;;;;;11.55;10.45;;;13.50;99.90;;;;;;2082358;28;20095;-70
2021/09/14 04:42:17;;;;;;;16.13;10.98;;;13.50;99.90;;;;;;2078704;28;20100;-70
2021/09/14 04:43:18;;;;;;;12.93;10.07;;;13.50;99.90;;;;;;2078737;28;20019;-69
2021/09/14 04:44:18;;;;;;;10.38;9.25;;;13.50;99.90;;;;;;2079480;28;20038;-69
2021/09/14 04:45:19;;;;;;;11.25;10.00;;;13.50;99.90;;;;;;2079725;28;20129;-69
2021/09/14 04:46:19;;;;;;;9.50;8.60;;;13.50;99.90;;;;;;2083683;28;20074;-69
2021/09/14 04:47:20;;;;;;;9.55;8.73;;;13.50;99.90;;;;;;2085998;28;20021;-70
2021/09/14 04:48:21;;;;;;;12.77;10.10;;;13.50;99.90;;;;;;2079501;28;20026;-69
2021/09/14 04:49:21;;;;;;;11.65;10.55;;;13.50;99.90;;;;;;2079451;28;20104;-70
2021/09/14 04:50:22;;;;;;;12.43;11.05;;;13.50;99.90;;;;;;2079560;28;20034;-69
2021/09/14 04:51:22;;;;;;;10.55;9.55;;;13.50;99.90;;;;;;2081691;28;20465;-69
2021/09/14 04:52:23;;;;;;;12.27;10.98;;;13.50;99.90;;;;;;2084055;28;20071;-70
2021/09/14 04:53:24;;;;;;;12.02;10.75;;;13.50;99.90;;;;;;2079512;28;20032;-70
2021/09/14 04:54:24;;;;;;;12.82;11.52;;;13.50;99.90;;;;;;2079610;28;20473;-69
2021/09/14 04:55:25;;;;;;;15.65;10.77;;;13.50;99.90;;;;;;2079740;28;20028;-70
2021/09/14 04:56:25;;;;;;;10.63;9.57;;;13.50;99.90;;;;;;2079384;28;20022;-70
2021/09/14 04:57:26;;;;;;;10.70;9.65;;;13.50;99.90;;;;;;2079104;28;20022;-70
2021/09/14 04:58:26;;;;;;;10.80;9.75;;;13.50;99.90;;;;;;2078833;28;20033;-70
2021/09/14 04:59:27;;;;;;;11.98;10.82;;;13.50;99.90;;;;;;2078862;28;20029;-70
2021/09/14 05:00:28;;;;;;;11.27;9.50;;;13.50;99.90;;;;;;2082370;28;20037;-70
2021/09/14 05:01:28;;;;;;;13.52;12.13;;;13.50;99.90;;;;;;2087991;28;20033;-70
2021/09/14 05:02:29;;;;;;;12.07;10.85;;;13.50;99.90;;;;;;2080911;28;20052;-70
2021/09/14 05:03:29;;;;;;;12.18;10.98;;;13.40;99.90;;;;;;2079186;28;20041;-70
2021/09/14 05:04:30;;;;;;;12.95;11.10;;;13.40;99.90;;;;;;2079296;28;20037;-70
2021/09/14 05:05:30;;;;;;;12.85;11.05;;;13.40;99.90;;;;;;2079726;28;20029;-70
2021/09/14 05:06:31;;;;;;;13.98;12.15;;;13.40;99.90;;;;;;2078798;28;20147;-70
2021/09/14 05:07:31;;;;;;;12.60;11.38;;;13.40;99.90;;;;;;2078908;28;20049;-70
2021/09/14 05:08:34;;;;;;;12.85;10.98;;;13.40;99.90;;;;;;2079265;28;20175;-70
2021/09/14 05:09:35;;;;;;;15.15;11.00;;;13.40;99.90;;;;;;2079466;28;20049;-70
2021/09/14 05:10:35;;;;;;;13.35;11.98;;;13.40;99.90;;;;;;2079259;28;20022;-70
2021/09/14 05:11:36;;;;;;;12.38;11.18;;;13.40;99.90;;;;;;2079676;28;20022;-70
2021/09/14 05:12:36;;;;;;;12.20;11.00;;;13.40;99.90;;;;;;2079323;28;20041;-70
2021/09/14 05:13:37;;;;;;;12.43;11.23;;;13.40;99.90;;;;;;2079145;28;20462;-70
2021/09/14 05:14:38;;;;;;;12.65;11.32;;;13.40;99.90;;;;;;2084625;28;20033;-70
2021/09/14 05:15:38;;;;;;;14.02;11.60;;;13.40;99.90;;;;;;2079770;28;20076;-70
2021/09/14 05:16:39;;;;;;;11.80;9.98;;;13.40;99.90;;;;;;2080753;28;20048;-70
2021/09/14 05:17:39;;;;;;;15.65;11.57;;;13.40;99.90;;;;;;2080616;28;20084;-70
2021/09/14 05:18:43;;;;;;;12.48;11.38;;;13.40;99.90;;;;;;2080870;28;20030;-70
2021/09/14 05:19:45;;;;;;;13.98;11.10;;;13.40;99.90;;;;;;2080179;28;20036;-70
2021/09/14 05:20:47;;;;;;;12.57;11.27;;;13.40;99.90;;;;;;2080486;28;20030;-70
2021/09/14 05:21:47;;;;;;;12.35;11.07;;;13.30;99.90;;;;;;2080724;28;20083;-70
2021/09/14 05:22:53;;;;;;;13.02;11.65;;;13.40;99.90;;;;;;2080705;28;20029;-70
2021/09/14 05:23:53;;;;;;;13.15;11.85;;;13.40;99.90;;;;;;2081298;28;20029;-70
2021/09/14 05:24:54;;;;;;;13.73;12.38;;;13.40;99.90;;;;;;2080513;28;20033;-70
2021/09/14 05:25:54;;;;;;;14.05;11.30;;;13.40;99.90;;;;;;2080750;28;20644;-70
2021/09/14 05:26:56;;;;;;;13.40;12.10;;;13.40;99.90;;;;;;2081177;28;20017;-70
2021/09/14 05:27:56;;;;;;;15.50;11.82;;;13.40;99.90;;;;;;2080917;28;20465;-70
2021/09/14 05:28:57;;;;;;;13.07;11.68;;;13.40;99.90;;;;;;2088726;28;20389;-70
2021/09/14 05:29:57;;;;;;;13.73;12.30;;;13.40;99.90;;;;;;2083172;28;20068;-70
2021/09/14 05:30:59;;;;;;;13.85;12.32;;;13.40;99.90;;;;;;2080933;28;20021;-70
2021/09/14 05:31:59;;;;;;;13.00;11.70;;;13.40;99.90;;;;;;2080952;28;20177;-70
2021/09/14 05:33:01;;;;;;;14.32;12.70;;;13.40;99.90;;;;;;2080324;28;20045;-70
2021/09/14 05:34:02;;;;;;;13.95;12.50;;;13.40;99.90;;;;;;2086081;28;20091;-70
2021/09/14 05:35:03;;;;;;;13.40;11.77;;;13.40;99.90;;;;;;2092106;28;20036;-70
2021/09/14 05:36:05;;;;;;;13.90;12.45;;;13.40;99.90;;;;;;2091892;28;20017;-70
2021/09/14 05:37:06;;;;;;;12.65;11.35;;;13.40;99.90;;;;;;2080837;28;20105;-70
2021/09/14 05:38:06;;;;;;;14.77;13.18;;;13.40;99.90;;;;;;2080676;28;20032;-70
2021/09/14 05:39:07;;;;;;;13.77;11.25;;;13.40;99.90;;;;;;2081108;28;20473;-70
2021/09/14 05:40:09;;;;;;;11.63;10.63;;;13.40;99.90;;;;;;2089131;28;20025;-70
2021/09/14 05:41:09;;;;;;;12.57;10.55;;;13.40;99.90;;;;;;2084809;28;20022;-70
2021/09/14 05:42:10;;;;;;;16.67;12.60;;;13.40;99.90;;;;;;2081113;28;20482;-70
2021/09/14 05:43:10;;;;;;;12.90;11.70;;;13.40;99.90;;;;;;2085125;28;20033;-70
2021/09/14 05:44:11;;;;;;;12.15;10.00;;;13.40;99.90;;;;;;2086458;28;20021;-70
2021/09/14 05:45:12;;;;;;;12.75;11.02;;;13.50;99.90;;;;;;2080728;28;20063;-70
2021/09/14 05:46:12;;;;;;;12.30;11.05;;;13.50;99.90;;;;;;2080011;28;20033;-70
2021/09/14 05:47:13;;;;;;;11.85;10.75;;;13.50;99.90;;;;;;2080238;28;20465;-70
2021/09/14 05:48:13;;;;;;;12.57;11.38;;;13.40;99.90;;;;;;2080607;28;20032;-70
2021/09/14 05:49:14;;;;;;;12.50;11.43;;;13.40;99.90;;;;;;2080710;28;20057;-70
2021/09/14 05:50:15;;;;;;;16.33;12.52;;;13.50;99.90;;;;;;2080868;28;20079;-70
2021/09/14 05:51:15;;;;;;;13.13;11.68;;;13.50;99.90;;;;;;2088438;28;20029;-70
2021/09/14 05:52:16;;;;;;;12.20;11.00;;;13.50;99.90;;;;;;2090217;28;20024;-70
2021/09/14 05:53:16;;;;;;;13.52;12.25;;;13.50;99.90;;;;;;2090012;28;20031;-70
2021/09/14 05:54:17;;;;;;;13.32;12.00;;;13.50;99.90;;;;;;2087399;28;20028;-70
2021/09/14 05:55:18;;;;;;;15.77;14.10;;;13.50;99.90;;;;;;2080946;28;20109;-70
2021/09/14 05:56:18;;;;;;;14.05;12.27;;;13.60;99.90;;;;;;2081514;28;20021;-70
2021/09/14 05:57:19;;;;;;;14.18;12.77;;;13.50;99.90;;;;;;2080961;28;20029;-70
2021/09/14 05:58:19;;;;;;;14.25;12.95;;;13.60;99.90;;;;;;2081011;28;20031;-70
2021/09/14 05:59:20;;;;;;;14.02;12.65;;;13.50;99.90;;;;;;2080685;28;20030;-70
2021/09/14 06:00:23;;;;;;;15.32;12.68;;;13.60;99.90;;;;;;2080539;28;20036;-70
2021/09/14 06:01:24;;;;;;;14.40;13.00;;;13.60;99.90;;;;;;2080569;28;20529;-70
2021/09/14 06:02:24;;;;;;;15.48;13.88;;;13.60;99.90;;;;;;2080614;28;20354;-70
2021/09/14 06:03:27;;;;;;;14.07;12.55;;;13.60;99.90;;;;;;2079674;28;20083;-70
2021/09/14 06:04:28;;;;;;;15.65;14.00;;;13.60;99.90;;;;;;2079842;28;20029;-70
2021/09/14 06:05:28;;;;;;;16.42;13.57;;;13.60;99.90;;;;;;2083946;28;20452;-70
2021/09/14 06:06:29;;;;;;;14.68;13.27;;;13.70;99.90;;;;;;2089167;28;20512;-70
2021/09/14 06:07:29;;;;;;;15.90;14.35;;;13.70;99.90;;;;;;2088656;28;20503;-70
2021/09/14 06:08:30;;;;;;;14.55;13.15;;;13.70;99.90;;;;;;2088901;28;20028;-70
2021/09/14 06:09:30;;;;;;;16.52;13.18;;;13.70;99.90;;;;;;2088807;28;20032;-70